Lahaina, HI

8:34 AM HST on February 28, 2015 (GMT -1000)
The Ridge at Kapalua | Change Station
CLOSE
Current Station
Personal Weather Station
Location: Kapalua, HI
Elevation: 100 ft
Nearby Weather Stations
Active Advisory: Areal Flood Advisory Active Notice: Record Report

Elev 100 ft 21.00 °N, 156.66 °W | Updated 21 seconds ago

Mostly Cloudy
Mostly Cloudy
73.6 °F
Feels Like 72 °F
N
11.0
Wind Variable Wind from NE
Gusts 14.0 mph

Today
High -- | Low -- °F
--% Chance of Precip.
Yesterday
High -- | Low -- °F
Precip. -- in
6:47 AM 6:30 PM
Waxing Gibbous, 79% visible
Pressure 29.95 in
Visibility 15.0 miles
Clouds Mostly Cloudy 2000 ft
Mostly Cloudy 3500 ft
Heat Index 72 °F
Dew Point 70 °F
Humidity 88%
Rainfall 0.00 in
Snow Depth Not available.
UV 0 out of 12
Pollen Not available.
Air Quality Not available.
Flu Activity Not available.
METAR PHJH 281745Z 03012KT 15SM BKN020 BKN035 22/20 A2995

More Conditions Fewer Conditions

Pressure 29.95 in
Visibility 15.0 miles
Clouds Mostly Cloudy 2000 ft
Mostly Cloudy 3500 ft
Heat Index 72 °F
Dew Point 70 °F
Humidity 88%
Rainfall 0.00 in
Snow Depth Not available.
UV 0 out of 12
Pollen Not available.
Air Quality Not available.
Flu Activity Not available.
METAR PHJH 281745Z 03012KT 15SM BKN020 BKN035 22/20 A2995

More Conditions Fewer Conditions

10-Day Weather Forecast

Almanac

Astronomy

Feb. 28, 2015 Rise Set
Actual Time
Civil Twilight
Nautical Twilight
Astronomical Twilight
Moon
Length of Visible Light
Length of Day
Tomorrow will be .
, % of the Moon is Illuminated

Today's Extremes

State Highs State Lows

Community

WunderPhotos

Upload Photos

1,801,106 photos uploaded!

WunderBlogs® & News

Nearby

Air Quality

  Air Quality AQ Index Pollutant
Not available.

Snow Depth

Station Depth Elevation

Earthquake Activity

City Distance Mag. Time & Date
Minimum magnitude displayed is 2.5.

Coastal Water Temperatures

Place Temperature

Nearby Weather Stations

Areal Flood Advisory
Statement as of 6:38 AM HST on February 28, 2015

The National Weather Service in Honolulu has issued a

* Flood Advisory for the island of Molokai in Maui County

* until 930 am HST

* at 630 am HST... radar showed heavy rain 7 miles north of Kamalo...
or about 33 miles northwest of Kahului. The area of heavy rain was
nearly stationary.

* Other locations in the advisory include but are not limited to
Kalaupapa and Halawa Valley.

Precautionary/preparedness actions...

Stay away from streams... drainage ditches and low lying areas prone
to flooding.

Rainfall and runoff will also cause hazardous driving conditions due
to ponding... reduced visibility and poor braking action.

Do not cross fast flowing or rising water in your vehicle or on foot.
Turn around... Don/T drown.


This advisory may need to be extended beyond 930 am HST if heavy rain
persists.

Lat... Lon 2125 15704 2124 15663 2102 15678 2106 15706